Time;durP1;ratioP1;P1;durP2;ratioP2;P2;SDS_P1;SDS_P2;PMS_P1;PMS_P2;Temp;Humidity;BMP_temperature;BMP_pressure;BME280_temperature;BME280_humidity;BME280_pressure;Samples;Min_cycle;Max_cycle;Signal;HPM_P1;HPM_P2
2023/01/19 00:01:47;;;;;;;18.43;9.17;;;0.30;99.90;;;;;;7867854;28;20713;-90
2023/01/19 00:05:34;;;;;;;17.20;9.67;;;0.30;99.90;;;;;;7867879;28;20565;-90
2023/01/19 00:09:21;;;;;;;16.73;9.03;;;0.30;99.90;;;;;;7867761;28;20211;-90
2023/01/19 00:13:06;;;;;;;16.80;8.77;;;0.30;99.90;;;;;;7867601;28;20177;-90
2023/01/19 00:16:52;;;;;;;19.43;10.30;;;0.20;99.90;;;;;;7872226;28;20208;-90
2023/01/19 00:20:38;;;;;;;18.53;9.83;;;0.20;99.90;;;;;;7873335;28;20178;-90
2023/01/19 00:24:24;;;;;;;16.90;9.73;;;0.30;99.90;;;;;;7877113;28;20178;-90
2023/01/19 00:28:11;;;;;;;19.63;9.40;;;0.20;99.90;;;;;;7878124;28;20208;-90
2023/01/19 00:31:57;;;;;;;16.53;9.80;;;0.10;99.90;;;;;;7879360;28;20192;-91
2023/01/19 00:35:43;;;;;;;19.53;10.27;;;0.00;99.90;;;;;;7913474;28;20242;-91
2023/01/19 00:39:28;;;;;;;16.47;9.73;;;-0.20;99.90;;;;;;7915435;28;20152;-89
2023/01/19 00:43:14;;;;;;;19.90;10.20;;;0.00;99.90;;;;;;7897903;28;20575;-89
2023/01/19 00:47:02;;;;;;;18.33;9.90;;;0.00;99.90;;;;;;7875189;28;20215;-89
2023/01/19 00:50:48;;;;;;;18.30;10.03;;;0.10;99.90;;;;;;7873801;28;20710;-89
2023/01/19 00:54:34;;;;;;;17.80;9.97;;;0.10;99.90;;;;;;7873904;28;20201;-89
2023/01/19 00:58:21;;;;;;;20.07;9.67;;;0.00;99.90;;;;;;7871932;28;20224;-89
2023/01/19 01:02:07;;;;;;;18.50;9.97;;;0.00;99.90;;;;;;7872110;28;20203;-89
2023/01/19 01:05:52;;;;;;;20.97;10.10;;;0.00;99.90;;;;;;7871934;28;20197;-89
2023/01/19 01:09:38;;;;;;;17.53;10.23;;;-0.10;99.90;;;;;;7871634;28;20198;-89
2023/01/19 01:13:24;;;;;;;16.27;9.50;;;0.10;99.90;;;;;;7871704;28;20260;-89
2023/01/19 01:17:10;;;;;;;17.47;8.93;;;0.10;99.90;;;;;;7871478;28;20197;-89
2023/01/19 01:21:06;;;;;;;16.37;9.47;;;0.10;99.90;;;;;;7871347;28;20695;-89
2023/01/19 01:24:52;;;;;;;15.93;9.87;;;-0.10;99.90;;;;;;7871236;28;20181;-89
2023/01/19 01:28:37;;;;;;;16.63;8.63;;;-0.10;99.90;;;;;;7871049;28;20223;-89
2023/01/19 01:32:23;;;;;;;15.23;8.47;;;-0.30;99.90;;;;;;7871049;28;20180;-89
2023/01/19 01:36:10;;;;;;;17.07;9.00;;;-0.40;99.90;;;;;;7870846;28;20296;-89
2023/01/19 01:39:56;;;;;;;15.67;8.67;;;-0.50;99.90;;;;;;7871024;28;20200;-89
2023/01/19 01:43:49;;;;;;;17.23;9.00;;;-0.40;99.90;;;;;;7870862;28;20230;-89
2023/01/19 01:47:43;;;;;;;15.80;8.00;;;-0.40;99.90;;;;;;7871702;28;20678;-88
2023/01/19 01:51:42;;;;;;;19.43;8.20;;;-0.50;99.90;;;;;;7870549;28;20576;-89
2023/01/19 01:55:30;;;;;;;16.77;7.43;;;-0.60;99.90;;;;;;7871631;28;20200;-89
2023/01/19 01:59:48;;;;;;;13.10;7.30;;;-0.60;99.90;;;;;;7870074;28;20209;-89
2023/01/19 02:03:34;;;;;;;18.00;7.57;;;-0.70;99.90;;;;;;7868714;28;20184;-88
2023/01/19 02:16:01;;;;;;;12.40;6.87;;;-0.90;99.90;;;;;;7871567;28;20193;-89
2023/01/19 02:19:47;;;;;;;15.30;7.50;;;-0.80;99.90;;;;;;7869708;28;20523;-88
2023/01/19 02:23:57;;;;;;;15.10;7.23;;;-0.70;99.90;;;;;;7870162;28;20696;-90
2023/01/19 02:27:46;;;;;;;12.43;7.50;;;-0.60;99.90;;;;;;7869322;28;20212;-89
2023/01/19 02:31:33;;;;;;;14.57;7.50;;;-0.50;99.90;;;;;;7869557;28;20220;-89
2023/01/19 02:35:21;;;;;;;11.60;6.77;;;-0.40;99.90;;;;;;7869435;28;20192;-89
2023/01/19 02:39:09;;;;;;;15.33;8.00;;;-0.50;99.90;;;;;;7868619;28;20177;-88
2023/01/19 02:42:59;;;;;;;12.20;6.90;;;-0.50;99.90;;;;;;7869089;28;20189;-89
2023/01/19 02:46:45;;;;;;;14.67;6.97;;;-0.40;99.90;;;;;;7868775;28;20205;-89
2023/01/19 02:50:44;;;;;;;11.67;6.53;;;-0.50;99.90;;;;;;7869183;28;20180;-89
2023/01/19 02:54:45;;;;;;;11.27;6.80;;;-0.50;99.90;;;;;;7868792;28;20219;-89
2023/01/19 02:58:31;;;;;;;11.90;6.30;;;-0.50;99.90;;;;;;7868781;28;20221;-89
2023/01/19 03:02:33;;;;;;;12.10;6.97;;;-0.50;99.90;;;;;;7868743;28;20173;-89
2023/01/19 03:06:41;;;;;;;11.73;6.37;;;-0.60;99.90;;;;;;7868788;28;20247;-90
2023/01/19 03:11:03;;;;;;;11.83;6.80;;;-0.60;99.90;;;;;;7869834;28;20648;-89
2023/01/19 03:14:52;;;;;;;11.80;6.60;;;-0.60;99.90;;;;;;7864692;28;20187;-89
2023/01/19 03:18:41;;;;;;;13.27;6.77;;;-0.60;99.90;;;;;;7868256;28;20276;-89
2023/01/19 03:22:28;;;;;;;13.17;7.03;;;-0.60;99.90;;;;;;7868394;28;20207;-89
2023/01/19 03:26:18;;;;;;;13.73;6.23;;;-0.70;99.90;;;;;;7868285;28;20215;-89
2023/01/19 03:30:08;;;;;;;10.27;6.30;;;-0.70;99.90;;;;;;7868223;28;20201;-89
2023/01/19 03:33:58;;;;;;;10.90;6.27;;;-0.70;99.90;;;;;;7868507;28;20223;-89
2023/01/19 03:37:46;;;;;;;9.03;5.57;;;-0.70;99.90;;;;;;7868249;28;20201;-89
2023/01/19 03:41:34;;;;;;;11.73;5.90;;;-0.80;99.90;;;;;;7869192;28;20658;-89
2023/01/19 03:45:20;;;;;;;15.00;6.37;;;-0.90;99.90;;;;;;7868047;28;20177;-89
2023/01/19 03:49:07;;;;;;;11.80;5.60;;;-0.90;99.90;;;;;;7868726;28;20215;-90
2023/01/19 03:53:01;;;;;;;12.10;6.00;;;-0.90;99.90;;;;;;7873967;28;20176;-89
2023/01/19 03:56:46;;;;;;;10.23;5.93;;;-0.80;99.90;;;;;;7873824;28;20576;-89
2023/01/19 04:00:33;;;;;;;13.17;6.00;;;-0.80;99.90;;;;;;7874202;28;20268;-89
2023/01/19 04:04:18;;;;;;;7.60;4.57;;;-0.80;99.90;;;;;;7873770;28;20223;-89
2023/01/19 04:08:04;;;;;;;9.00;4.60;;;-0.90;99.90;;;;;;7873522;28;20205;-89
2023/01/19 04:11:50;;;;;;;9.43;4.80;;;-0.90;99.90;;;;;;7873308;28;20260;-89
2023/01/19 04:15:36;;;;;;;8.83;4.83;;;-0.90;99.90;;;;;;7874589;28;20189;-89
2023/01/19 04:19:22;;;;;;;10.27;5.80;;;-1.00;99.90;;;;;;7873260;28;20223;-89
2023/01/19 04:23:08;;;;;;;9.57;5.87;;;-1.00;99.90;;;;;;7873320;28;20181;-89
2023/01/19 04:26:53;;;;;;;11.47;6.30;;;-1.00;99.90;;;;;;7873374;28;20205;-89
2023/01/19 04:30:39;;;;;;;7.73;5.00;;;-1.00;99.90;;;;;;7873143;28;20260;-89
2023/01/19 04:34:24;;;;;;;12.73;5.17;;;-1.10;99.90;;;;;;7872773;28;20173;-89
2023/01/19 04:38:10;;;;;;;8.10;4.90;;;-1.10;99.90;;;;;;7872637;28;20215;-89
2023/01/19 04:41:59;;;;;;;12.53;5.20;;;-1.10;99.90;;;;;;7872622;28;20216;-89
2023/01/19 04:45:46;;;;;;;7.80;4.07;;;-1.20;99.90;;;;;;7873951;28;20217;-90
2023/01/19 04:49:31;;;;;;;11.67;4.60;;;-1.20;99.90;;;;;;7873763;28;20728;-89
2023/01/19 04:53:17;;;;;;;9.73;5.17;;;-1.20;99.90;;;;;;7873153;28;20514;-89
2023/01/19 04:57:02;;;;;;;8.57;4.97;;;-1.20;99.90;;;;;;7873984;28;20288;-90
2023/01/19 05:00:49;;;;;;;8.33;4.20;;;-1.30;99.90;;;;;;7872728;28;20647;-89
2023/01/19 05:04:35;;;;;;;11.10;5.70;;;-1.30;99.90;;;;;;7876908;28;20180;-90
2023/01/19 05:08:23;;;;;;;15.57;9.03;;;-1.40;99.90;;;;;;7902880;28;20212;-89
2023/01/19 05:12:09;;;;;;;16.00;9.07;;;-1.40;99.90;;;;;;7903405;28;20165;-89
2023/01/19 05:15:54;;;;;;;11.10;6.27;;;-1.40;99.90;;;;;;7903054;28;20264;-89
2023/01/19 05:19:40;;;;;;;11.27;5.17;;;-1.40;99.90;;;;;;7903238;28;20385;-89
2023/01/19 05:23:26;;;;;;;9.93;5.00;;;-1.40;99.90;;;;;;7903137;28;20230;-88
2023/01/19 05:27:11;;;;;;;8.87;4.80;;;-1.40;99.90;;;;;;7905390;28;20209;-89
2023/01/19 05:39:34;;;;;;;6.77;4.07;;;-1.60;99.90;;;;;;9115793;22;20314;-89
2023/01/19 05:43:24;;;;;;;9.33;4.20;;;-1.60;99.90;;;;;;7897980;28;20196;-91
2023/01/19 05:47:13;;;;;;;7.83;3.37;;;-1.70;99.90;;;;;;7895643;28;20212;-90
2023/01/19 05:51:00;;;;;;;5.47;3.17;;;-1.70;99.90;;;;;;7891582;28;20227;-90
2023/01/19 08:12:03;;;;;;;11.73;5.40;;;-2.10;99.90;;;;;;9225241;23;20249;-89
2023/01/19 08:15:50;;;;;;;7.90;4.20;;;-2.20;99.90;;;;;;7818234;28;20198;-88
2023/01/19 08:19:36;;;;;;;7.20;3.23;;;-2.20;99.90;;;;;;7833635;28;20186;-88
2023/01/19 08:23:22;;;;;;;6.50;2.90;;;-2.00;99.90;;;;;;7832850;28;20186;-90
2023/01/19 08:27:10;;;;;;;7.87;3.80;;;-2.30;99.90;;;;;;7832702;28;20240;-89
2023/01/19 08:30:56;;;;;;;5.63;2.93;;;-2.20;99.90;;;;;;7816557;28;20831;-89
2023/01/19 08:34:41;;;;;;;3.87;2.43;;;-2.20;99.90;;;;;;7831084;28;20546;-92
2023/01/19 08:38:27;;;;;;;4.40;2.50;;;-2.20;99.90;;;;;;7829388;28;20198;-89
2023/01/19 08:42:13;;;;;;;4.27;2.40;;;-2.20;99.90;;;;;;7829168;28;20190;-88
2023/01/19 08:45:58;;;;;;;5.27;2.60;;;-2.10;99.90;;;;;;7829208;28;20759;-88
2023/01/19 08:49:53;;;;;;;5.33;2.63;;;-2.10;99.90;;;;;;7829242;28;20209;-90
2023/01/19 08:53:40;;;;;;;9.77;4.37;;;-2.10;99.90;;;;;;7829457;28;20576;-89
2023/01/19 08:57:26;;;;;;;6.67;3.60;;;-2.10;99.90;;;;;;7813143;28;20297;-89
2023/01/19 09:01:13;;;;;;;7.33;3.03;;;-2.10;99.90;;;;;;7828489;28;20182;-89
2023/01/19 09:04:59;;;;;;;5.73;2.90;;;-2.10;99.90;;;;;;7828440;28;20186;-89
2023/01/19 09:08:45;;;;;;;5.77;2.50;;;-2.10;99.90;;;;;;7828458;28;20210;-91
2023/01/19 09:12:31;;;;;;;4.70;2.27;;;-2.10;99.90;;;;;;7827493;28;20201;-89
2023/01/19 09:16:17;;;;;;;5.00;2.47;;;-1.90;99.90;;;;;;7827947;28;20205;-89
2023/01/19 09:20:04;;;;;;;4.33;2.70;;;-2.00;99.90;;;;;;7827992;28;20186;-89
2023/01/19 09:23:50;;;;;;;4.67;2.60;;;-1.90;99.90;;;;;;7828407;28;20793;-90
2023/01/19 09:27:36;;;;;;;4.43;2.50;;;-1.90;99.90;;;;;;7813175;28;20667;-89
2023/01/19 09:31:22;;;;;;;8.97;2.70;;;-1.80;99.90;;;;;;7829374;28;20643;-89
2023/01/19 09:35:08;;;;;;;4.43;2.10;;;-1.70;99.90;;;;;;7827503;28;20173;-89
2023/01/19 09:38:54;;;;;;;4.77;2.23;;;-1.70;99.90;;;;;;7828074;28;20620;-89
2023/01/19 09:42:43;;;;;;;4.90;2.53;;;-1.60;99.90;;;;;;7828171;28;20190;-89
2023/01/19 09:46:38;;;;;;;3.07;2.17;;;-1.50;99.90;;;;;;7826853;28;20199;-89
2023/01/19 09:50:29;;;;;;;4.27;3.00;;;-1.50;99.90;;;;;;7827427;28;20205;-89
2023/01/19 09:54:25;;;;;;;9.57;5.83;;;-1.40;99.90;;;;;;7827602;28;20674;-88
2023/01/19 09:58:24;;;;;;;18.43;6.20;;;-1.30;99.90;;;;;;7827147;28;20202;-89
2023/01/19 10:02:50;;;;;;;9.37;4.50;;;-1.20;99.90;;;;;;7826830;28;20208;-88
2023/01/19 10:06:36;;;;;;;8.23;4.43;;;-1.10;99.90;;;;;;7826764;28;20255;-89
2023/01/19 10:10:27;;;;;;;19.07;11.73;;;-1.10;99.90;;;;;;7826321;28;20688;-90
2023/01/19 10:14:31;;;;;;;8.70;6.40;;;-0.80;99.90;;;;;;7809856;28;20197;-89
2023/01/19 10:18:31;;;;;;;8.97;5.70;;;-0.90;99.90;;;;;;7826440;28;20209;-88
2023/01/19 10:22:23;;;;;;;10.30;5.50;;;-0.80;99.90;;;;;;7825763;28;20174;-89
2023/01/19 10:26:19;;;;;;;4.80;3.37;;;-0.80;99.90;;;;;;7825422;28;20834;-89
2023/01/19 10:30:07;;;;;;;3.77;2.77;;;-0.70;99.90;;;;;;7825515;28;20192;-89
2023/01/19 10:33:53;;;;;;;5.43;3.97;;;-0.60;99.90;;;;;;7825271;28;20175;-89
2023/01/19 10:37:43;;;;;;;9.43;5.23;;;-0.50;99.90;;;;;;7824908;28;20675;-89
2023/01/19 10:41:49;;;;;;;10.67;4.20;;;-0.50;99.90;;;;;;7809564;28;20165;-90
2023/01/19 10:45:35;;;;;;;7.67;4.20;;;-0.40;99.90;;;;;;7793454;28;20203;-88
2023/01/19 10:49:39;;;;;;;8.40;3.80;;;-0.40;99.90;;;;;;7792779;28;20206;-89
2023/01/19 10:53:24;;;;;;;5.63;3.00;;;-0.20;99.90;;;;;;7792146;28;20204;-90
2023/01/19 10:57:13;;;;;;;5.43;3.20;;;-0.20;99.90;;;;;;7806445;28;20289;-89
2023/01/19 11:01:18;;;;;;;5.17;2.90;;;-0.30;99.90;;;;;;7805309;28;20182;-89
2023/01/19 11:05:28;;;;;;;5.43;2.73;;;-0.30;99.90;;;;;;7807077;28;20171;-89
2023/01/19 11:09:18;;;;;;;5.00;2.77;;;-0.30;99.90;;;;;;7807164;28;20203;-89
2023/01/19 11:13:12;;;;;;;7.70;2.90;;;-0.20;99.90;;;;;;7837541;28;21684;-89
2023/01/19 11:16:58;;;;;;;6.20;3.50;;;-0.10;99.90;;;;;;7869328;28;20196;-90
2023/01/19 11:20:50;;;;;;;6.83;3.40;;;0.00;99.90;;;;;;7879387;28;20154;-89
2023/01/19 11:25:24;;;;;;;7.03;3.27;;;0.00;99.90;;;;;;7874300;28;20174;-89
2023/01/19 11:58:17;;;;;;;8.50;4.00;;;0.30;99.90;;;;;;7784055;28;20627;-86
2023/01/19 12:02:32;;;;;;;8.37;3.70;;;0.40;99.90;;;;;;7784575;28;20258;-86
2023/01/19 12:06:25;;;;;;;8.67;4.30;;;0.30;99.90;;;;;;7753037;28;20203;-87
2023/01/19 12:10:32;;;;;;;8.80;4.73;;;0.30;99.90;;;;;;7753896;28;20192;-87
2023/01/19 12:14:33;;;;;;;9.17;5.10;;;0.40;99.90;;;;;;7759012;28;20231;-87
2023/01/19 12:18:27;;;;;;;7.33;4.07;;;0.50;99.90;;;;;;7758129;28;20230;-87
2023/01/19 12:22:15;;;;;;;10.77;4.73;;;0.50;99.90;;;;;;7757498;28;20195;-87
2023/01/19 12:26:17;;;;;;;9.30;4.10;;;0.50;99.90;;;;;;7755931;28;20208;-86
2023/01/19 12:30:04;;;;;;;7.10;4.20;;;0.50;99.90;;;;;;7755319;28;20259;-87
2023/01/19 12:33:50;;;;;;;7.60;4.40;;;0.50;99.90;;;;;;7768229;28;20200;-86
2023/01/19 12:37:41;;;;;;;9.77;4.10;;;0.50;99.90;;;;;;7755889;28;20175;-86
2023/01/19 12:41:35;;;;;;;10.20;5.70;;;0.50;99.90;;;;;;7755977;28;20169;-88
2023/01/19 12:45:24;;;;;;;10.80;4.67;;;0.60;99.90;;;;;;7752923;28;20286;-86
2023/01/19 12:49:28;;;;;;;8.60;4.83;;;0.60;99.90;;;;;;7753642;28;20211;-87
2023/01/19 12:53:20;;;;;;;7.67;4.20;;;0.60;99.90;;;;;;7756340;28;20192;-86
2023/01/19 12:57:17;;;;;;;12.37;3.93;;;0.60;99.90;;;;;;7776178;28;20213;-87
2023/01/19 13:01:19;;;;;;;7.93;4.07;;;0.80;99.90;;;;;;7768362;28;20203;-87
2023/01/19 13:05:31;;;;;;;6.17;3.60;;;0.70;99.90;;;;;;7773734;28;20633;-87
2023/01/19 13:09:43;;;;;;;5.87;3.43;;;0.70;99.90;;;;;;7738733;28;20695;-88
2023/01/19 13:13:35;;;;;;;8.27;4.43;;;0.70;99.90;;;;;;7781151;28;20254;-87
2023/01/19 13:17:49;;;;;;;10.33;4.47;;;0.70;99.90;;;;;;7763237;28;20243;-87
2023/01/19 13:21:42;;;;;;;15.20;5.30;;;0.80;99.90;;;;;;7780826;28;20596;-88
2023/01/19 13:25:34;;;;;;;8.47;4.30;;;0.80;99.90;;;;;;7781922;28;20746;-87
2023/01/19 13:29:34;;;;;;;9.20;4.77;;;0.80;99.90;;;;;;7763701;28;20243;-88
2023/01/19 13:33:26;;;;;;;6.13;3.33;;;0.90;99.90;;;;;;7763380;28;20676;-87
2023/01/19 13:37:18;;;;;;;6.93;3.37;;;0.90;99.90;;;;;;7763750;28;20187;-87
2023/01/19 13:41:04;;;;;;;9.87;3.33;;;1.10;99.90;;;;;;7783521;28;20202;-87
2023/01/19 13:44:53;;;;;;;4.80;3.00;;;1.10;99.90;;;;;;7784456;28;20708;-87
2023/01/19 13:48:49;;;;;;;6.87;3.80;;;1.10;99.90;;;;;;7781240;28;20234;-87
2023/01/19 13:52:35;;;;;;;13.17;4.80;;;1.10;99.90;;;;;;7765430;28;20175;-87
2023/01/19 13:56:23;;;;;;;7.40;3.87;;;1.10;99.90;;;;;;7782260;28;20714;-86
2023/01/19 14:00:11;;;;;;;6.23;3.30;;;1.10;99.90;;;;;;7764031;28;20554;-87
2023/01/19 14:03:57;;;;;;;5.73;3.37;;;1.10;99.90;;;;;;7764513;28;20650;-87
2023/01/19 14:07:43;;;;;;;8.10;4.37;;;1.10;99.90;;;;;;7763657;28;20199;-86
2023/01/19 14:11:29;;;;;;;6.53;4.50;;;1.20;99.90;;;;;;7797237;28;20206;-86
2023/01/19 14:15:14;;;;;;;9.50;3.77;;;1.10;99.90;;;;;;7756265;28;20269;-87
2023/01/19 14:19:03;;;;;;;9.30;3.73;;;1.20;99.90;;;;;;7761905;28;20269;-86
2023/01/19 14:22:49;;;;;;;8.70;3.80;;;1.30;99.90;;;;;;7747293;28;20211;-86
2023/01/19 14:26:50;;;;;;;6.60;3.93;;;1.20;99.90;;;;;;7781325;28;20211;-86
2023/01/19 14:30:36;;;;;;;9.80;4.23;;;1.10;99.90;;;;;;7764243;28;20206;-87
2023/01/19 14:34:38;;;;;;;6.07;3.77;;;1.10;99.90;;;;;;7780196;28;20684;-87
2023/01/19 14:38:24;;;;;;;7.53;3.90;;;1.10;99.90;;;;;;7782389;28;20172;-87
2023/01/19 14:42:17;;;;;;;12.13;5.77;;;1.10;99.90;;;;;;7766642;28;20202;-86
2023/01/19 14:46:04;;;;;;;9.80;3.97;;;1.10;99.90;;;;;;7783106;28;20199;-87
2023/01/19 14:49:49;;;;;;;3.87;2.87;;;1.10;99.90;;;;;;7782345;28;20207;-86
2023/01/19 14:53:37;;;;;;;6.60;3.00;;;0.90;99.90;;;;;;7766186;28;20199;-86
2023/01/19 14:57:23;;;;;;;10.03;6.03;;;1.10;99.90;;;;;;7767153;28;20194;-87
2023/01/19 15:01:09;;;;;;;16.37;9.50;;;0.90;99.90;;;;;;7754092;28;20269;-87
2023/01/19 15:04:56;;;;;;;14.23;7.53;;;1.00;99.90;;;;;;7752557;28;20246;-87
2023/01/19 15:08:42;;;;;;;8.97;4.70;;;0.80;99.90;;;;;;7754304;28;20203;-87
2023/01/19 15:12:28;;;;;;;7.17;4.30;;;0.70;99.90;;;;;;7764808;28;20183;-86
2023/01/19 15:16:14;;;;;;;7.70;4.80;;;0.70;99.90;;;;;;7765308;28;20203;-87
2023/01/19 15:19:59;;;;;;;9.03;4.43;;;0.60;99.90;;;;;;7780740;28;20579;-86
2023/01/19 15:23:49;;;;;;;14.50;8.37;;;0.60;99.90;;;;;;7767279;28;20203;-86
2023/01/19 15:27:34;;;;;;;16.00;9.90;;;0.50;99.90;;;;;;7783095;28;20286;-87
2023/01/19 15:31:23;;;;;;;14.97;8.43;;;0.50;99.90;;;;;;7766388;28;20176;-87
2023/01/19 15:35:13;;;;;;;14.63;9.83;;;0.50;99.90;;;;;;7772605;28;20207;-87
2023/01/19 15:38:59;;;;;;;16.13;7.30;;;0.40;99.90;;;;;;7768866;28;20194;-86
2023/01/19 15:42:44;;;;;;;11.00;6.27;;;0.40;99.90;;;;;;7782826;28;20983;-87
2023/01/19 15:46:30;;;;;;;10.17;5.47;;;0.30;99.90;;;;;;7784227;28;20195;-87
2023/01/19 15:50:16;;;;;;;8.43;5.07;;;0.20;99.90;;;;;;7773403;28;20210;-86
2023/01/19 15:54:02;;;;;;;9.43;5.43;;;0.10;99.90;;;;;;7773646;28;20195;-87
2023/01/19 15:57:47;;;;;;;13.60;7.70;;;0.10;99.90;;;;;;7789449;28;20199;-87
2023/01/19 16:01:33;;;;;;;12.37;6.73;;;0.00;99.90;;;;;;7790550;28;20198;-87
2023/01/19 16:05:19;;;;;;;13.93;7.63;;;0.00;99.90;;;;;;7771098;28;20237;-87
2023/01/19 16:09:05;;;;;;;18.03;9.27;;;0.00;99.90;;;;;;7769627;28;20238;-84
2023/01/19 16:12:51;;;;;;;20.43;9.33;;;0.00;99.90;;;;;;7768180;28;20183;-87
2023/01/19 16:16:37;;;;;;;24.13;14.57;;;0.00;99.90;;;;;;7770627;28;20226;-87
2023/01/19 16:20:23;;;;;;;17.00;8.53;;;0.00;99.90;;;;;;7786008;28;20187;-86
2023/01/19 16:24:08;;;;;;;10.90;6.90;;;0.00;99.90;;;;;;7769343;28;20688;-86
2023/01/19 16:27:55;;;;;;;9.80;6.33;;;0.00;99.90;;;;;;7787094;28;20203;-87
2023/01/19 16:31:42;;;;;;;12.97;5.87;;;-0.10;99.90;;;;;;7770772;28;20202;-87
2023/01/19 16:35:29;;;;;;;15.40;9.03;;;0.00;99.90;;;;;;7768666;28;20199;-87
2023/01/19 16:39:16;;;;;;;14.83;8.00;;;0.00;99.90;;;;;;7769542;28;20277;-86
2023/01/19 16:43:03;;;;;;;14.90;7.83;;;0.00;99.90;;;;;;7764820;28;20219;-86
2023/01/19 16:46:49;;;;;;;13.37;7.47;;;0.10;99.90;;;;;;7764379;28;20218;-86
2023/01/19 16:50:34;;;;;;;12.23;7.63;;;0.10;99.90;;;;;;7780308;28;20228;-87
2023/01/19 16:54:24;;;;;;;19.40;8.63;;;0.10;99.90;;;;;;7784050;28;20204;-87
2023/01/19 16:58:10;;;;;;;18.33;7.93;;;0.20;99.90;;;;;;7766655;28;20215;-87
2023/01/19 17:01:56;;;;;;;13.30;8.20;;;0.20;99.90;;;;;;7783711;28;20454;-88
2023/01/19 17:05:50;;;;;;;22.77;11.17;;;0.20;99.90;;;;;;7764616;28;20203;-86
2023/01/19 17:09:36;;;;;;;18.30;9.03;;;0.30;99.90;;;;;;7786035;28;20206;-87
2023/01/19 17:13:22;;;;;;;18.37;8.40;;;0.30;99.90;;;;;;7785282;28;20226;-87
2023/01/19 17:17:08;;;;;;;24.60;12.90;;;0.30;99.90;;;;;;7772458;28;20179;-87
2023/01/19 17:20:58;;;;;;;16.77;9.07;;;0.40;99.90;;;;;;7773586;28;20683;-86
2023/01/19 17:24:45;;;;;;;12.93;7.30;;;0.20;99.90;;;;;;7768422;28;20771;-86
2023/01/19 17:28:31;;;;;;;12.67;7.27;;;0.30;99.90;;;;;;7762543;28;20279;-86
2023/01/19 17:32:17;;;;;;;10.57;6.30;;;0.40;99.90;;;;;;7782945;28;20216;-86
2023/01/19 17:36:09;;;;;;;10.23;6.00;;;0.30;99.90;;;;;;7768516;28;20187;-87
2023/01/19 17:39:56;;;;;;;12.90;7.47;;;0.30;99.90;;;;;;7751546;28;20196;-87
2023/01/19 17:43:41;;;;;;;13.03;7.43;;;0.30;99.90;;;;;;7759171;28;20399;-87
2023/01/19 17:47:27;;;;;;;12.93;7.53;;;0.30;99.90;;;;;;7780094;28;20202;-87
2023/01/19 17:51:13;;;;;;;13.30;8.00;;;0.20;99.90;;;;;;7796113;28;20206;-87
2023/01/19 17:54:59;;;;;;;19.47;8.63;;;0.30;99.90;;;;;;7836979;23;20231;-88
2023/01/19 17:58:45;;;;;;;14.33;7.50;;;0.20;99.90;;;;;;7810490;28;20199;-88
2023/01/19 18:02:30;;;;;;;13.83;7.93;;;0.20;99.90;;;;;;7805658;28;20579;-88
2023/01/19 18:06:22;;;;;;;19.27;8.60;;;0.30;99.90;;;;;;7790682;28;20199;-88
2023/01/19 18:10:09;;;;;;;14.43;8.63;;;0.10;99.90;;;;;;7804244;28;20215;-88
2023/01/19 18:13:55;;;;;;;13.47;8.47;;;0.10;99.90;;;;;;7783718;28;20214;-88
2023/01/19 18:17:48;;;;;;;15.50;8.70;;;0.10;99.90;;;;;;7796752;28;20207;-88
2023/01/19 18:21:38;;;;;;;14.60;7.43;;;0.10;99.90;;;;;;7793559;28;20221;-88
2023/01/19 18:25:24;;;;;;;14.30;7.30;;;0.10;99.90;;;;;;7792690;28;20381;-87
2023/01/19 18:29:15;;;;;;;16.60;8.60;;;0.10;99.90;;;;;;7766896;28;20211;-88
2023/01/19 18:33:01;;;;;;;18.47;8.70;;;0.10;99.90;;;;;;7772663;28;20684;-88
2023/01/19 18:36:46;;;;;;;16.70;8.90;;;0.00;99.90;;;;;;7772747;28;20618;-88
2023/01/19 18:40:38;;;;;;;17.87;8.77;;;0.10;99.90;;;;;;7785213;28;20183;-89
2023/01/19 18:44:24;;;;;;;17.80;10.97;;;0.00;99.90;;;;;;7805883;28;20330;-89
2023/01/19 18:48:10;;;;;;;15.27;8.80;;;0.00;99.90;;;;;;7780596;28;20211;-89
2023/01/19 18:51:55;;;;;;;14.83;7.70;;;0.00;99.90;;;;;;7788847;28;20223;-89
2023/01/19 18:55:52;;;;;;;12.93;8.20;;;0.10;99.90;;;;;;7795826;28;20305;-89
2023/01/19 18:59:42;;;;;;;14.07;7.00;;;0.00;99.90;;;;;;7808932;28;20529;-89
2023/01/19 19:03:28;;;;;;;13.03;7.27;;;0.10;99.90;;;;;;7792726;28;20179;-89
2023/01/19 19:07:14;;;;;;;12.60;7.73;;;0.10;99.90;;;;;;7788601;28;20287;-89
2023/01/19 19:11:00;;;;;;;16.50;8.43;;;0.10;99.90;;;;;;7773995;28;20183;-88
2023/01/19 19:18:55;;;;;;;14.60;7.80;;;0.20;99.90;;;;;;9609782;23;20213;-89
2023/01/19 19:22:42;;;;;;;12.87;8.07;;;0.10;99.90;;;;;;7823046;28;20194;-88
2023/01/19 19:26:28;;;;;;;28.77;14.33;;;0.20;99.90;;;;;;7786545;28;20214;-89
2023/01/19 19:30:15;;;;;;;17.37;9.27;;;0.10;99.90;;;;;;7779076;28;20310;-89
2023/01/19 19:34:00;;;;;;;28.63;13.97;;;0.10;99.90;;;;;;7776585;28;20229;-89
2023/01/19 19:37:47;;;;;;;15.90;8.93;;;0.20;99.90;;;;;;7787639;28;20194;-89
2023/01/19 19:41:33;;;;;;;12.90;7.50;;;0.30;99.90;;;;;;7769681;28;20596;-90
2023/01/19 19:45:19;;;;;;;11.13;7.00;;;0.10;99.90;;;;;;7782462;28;20202;-89
2023/01/19 19:49:04;;;;;;;11.67;6.30;;;0.20;99.90;;;;;;7779331;28;20202;-89
2023/01/19 19:52:50;;;;;;;12.93;6.63;;;0.20;99.90;;;;;;7768553;28;20183;-89
2023/01/19 19:56:35;;;;;;;13.10;7.60;;;0.20;99.90;;;;;;7785085;28;20203;-88
2023/01/19 20:00:21;;;;;;;12.07;7.80;;;0.20;99.90;;;;;;7779803;28;20206;-89
2023/01/19 20:04:10;;;;;;;14.00;7.90;;;0.20;99.90;;;;;;7782084;28;20236;-90
2023/01/19 20:07:56;;;;;;;12.07;7.10;;;0.20;99.90;;;;;;7801493;28;20287;-87
2023/01/19 20:11:44;;;;;;;13.50;7.60;;;0.30;99.90;;;;;;7771724;28;20206;-87
2023/01/19 20:15:31;;;;;;;10.73;6.53;;;0.30;99.90;;;;;;7778866;28;20571;-87
2023/01/19 20:19:17;;;;;;;14.37;8.00;;;0.30;99.90;;;;;;7780582;28;20244;-88
2023/01/19 20:23:02;;;;;;;11.97;6.73;;;0.30;99.90;;;;;;7768503;28;20203;-89
2023/01/19 20:26:51;;;;;;;13.43;6.60;;;0.30;99.90;;;;;;7768179;28;20309;-86
2023/01/19 20:30:37;;;;;;;14.37;6.83;;;0.30;99.90;;;;;;7792857;28;20289;-88
2023/01/19 20:34:26;;;;;;;12.03;7.10;;;0.30;99.90;;;;;;7802642;28;20222;-87
2023/01/19 20:38:14;;;;;;;10.87;6.87;;;0.30;99.90;;;;;;7802244;28;20183;-88
2023/01/19 20:42:00;;;;;;;14.17;7.17;;;0.30;99.90;;;;;;7799580;28;20234;-87
2023/01/19 20:45:46;;;;;;;14.23;7.97;;;0.30;99.90;;;;;;7777921;28;20582;-88
2023/01/19 20:49:31;;;;;;;13.67;7.13;;;0.30;99.90;;;;;;7790600;28;20293;-89
2023/01/19 20:53:17;;;;;;;11.73;7.30;;;0.30;99.90;;;;;;7782661;28;20698;-87
2023/01/19 20:57:03;;;;;;;13.47;7.47;;;0.20;99.90;;;;;;7763329;28;20194;-88
2023/01/19 21:00:48;;;;;;;11.73;7.33;;;0.30;99.90;;;;;;7761690;28;20637;-87
2023/01/19 21:04:34;;;;;;;12.57;7.47;;;0.30;99.90;;;;;;7766842;28;20210;-86
2023/01/19 21:08:20;;;;;;;10.77;6.90;;;0.30;99.90;;;;;;7808966;28;20209;-87
2023/01/19 21:12:08;;;;;;;10.33;6.83;;;0.30;99.90;;;;;;7784420;28;20238;-88
2023/01/19 21:15:54;;;;;;;14.63;7.60;;;0.30;99.90;;;;;;7778084;28;20198;-88
2023/01/19 21:19:39;;;;;;;13.20;7.20;;;0.40;99.90;;;;;;7784742;28;20214;-87
2023/01/19 21:23:26;;;;;;;13.67;8.13;;;0.30;99.90;;;;;;7787526;28;20213;-88
2023/01/19 21:27:13;;;;;;;13.43;8.20;;;0.30;99.90;;;;;;7780962;28;20197;-88
2023/01/19 21:31:05;;;;;;;16.70;10.20;;;0.30;99.90;;;;;;7781410;28;20176;-89
2023/01/19 21:34:51;;;;;;;15.47;7.87;;;0.30;99.90;;;;;;7759942;28;20199;-88
2023/01/19 21:38:37;;;;;;;12.50;7.63;;;0.40;99.90;;;;;;7788124;28;20694;-88
2023/01/19 21:42:23;;;;;;;13.17;7.50;;;0.30;99.90;;;;;;7790442;28;20190;-88
2023/01/19 21:46:12;;;;;;;11.50;6.77;;;0.40;99.90;;;;;;7790261;28;20206;-88
2023/01/19 21:49:58;;;;;;;13.90;6.93;;;0.40;99.90;;;;;;7783703;28;20233;-88
2023/01/19 21:53:43;;;;;;;10.63;6.47;;;0.30;99.90;;;;;;7783340;28;20194;-88
2023/01/19 21:57:29;;;;;;;10.07;6.10;;;0.40;99.90;;;;;;7787721;28;20199;-88
2023/01/19 22:01:15;;;;;;;10.70;6.37;;;0.50;99.90;;;;;;7787496;28;20183;-88
2023/01/19 22:05:01;;;;;;;11.20;6.87;;;0.40;99.90;;;;;;7778020;28;20207;-87
2023/01/19 22:08:47;;;;;;;8.83;5.97;;;0.40;99.90;;;;;;7784593;28;20217;-88
2023/01/19 22:12:32;;;;;;;9.57;6.33;;;0.50;99.90;;;;;;7786681;28;20668;-88
2023/01/19 22:16:19;;;;;;;11.27;6.67;;;0.60;99.90;;;;;;7780109;28;20210;-88
2023/01/19 22:20:06;;;;;;;10.13;6.57;;;0.50;99.90;;;;;;7760731;28;20285;-88
2023/01/19 22:23:54;;;;;;;11.63;7.07;;;0.50;99.90;;;;;;7776906;28;20202;-88
2023/01/19 22:27:40;;;;;;;12.30;7.43;;;0.50;99.90;;;;;;7787794;28;20585;-88
2023/01/19 22:31:27;;;;;;;11.77;7.03;;;0.50;99.90;;;;;;7806670;28;20585;-88
2023/01/19 22:35:13;;;;;;;13.20;8.20;;;0.50;99.90;;;;;;7782154;28;20207;-88
2023/01/19 22:39:01;;;;;;;14.57;7.90;;;0.50;99.90;;;;;;7759481;28;20175;-88
2023/01/19 22:42:47;;;;;;;12.67;8.37;;;0.50;99.90;;;;;;7784827;28;20241;-89
2023/01/19 22:46:35;;;;;;;12.87;7.90;;;0.50;99.90;;;;;;7787630;28;20211;-88
2023/01/19 22:50:21;;;;;;;11.10;7.50;;;0.50;99.90;;;;;;7797876;28;20209;-88
2023/01/19 22:54:07;;;;;;;12.47;7.60;;;0.40;99.90;;;;;;7761190;28;20286;-89
2023/01/19 22:57:52;;;;;;;14.87;8.73;;;0.50;99.90;;;;;;7757210;28;20176;-88